Terminal Aerodrome Forecast
Issued by NWS

Home | Current Version | Previous Version | Text Only | Print | Product List | Glossary On
Versions: 1 2 3 4 5 6 7 8 9 10 11 12
000
FTAK31 PANC 221148
TAFATK
TAF
PATK 221148Z 2212/2312 VRB03KT P6SM OVC100
     FM230300 01005KT P6SM -SHSN SCT035 OVC060
     FM230800 02006KT 6SM -SN BR SCT015 BKN030=

USA.gov is the U.S. government's official web portal to all federal, state and local government web resources and services.